Latest Coastal Weather Observations for Cape Nelson

IDV60701

Issued at 9:35 am EST Tuesday 2 September 2014 (issued every 10 minutes, with the page automatically refreshed every 10 minutes)

About coastal observations | Map of coastal stations | Coastal observations for VIC | Marine services | Other Formats
Station Details ID: 090184 Name: CAPE NELSON LIGHTHOUSE Lat: -38.43 Lon: 141.54 Height: 45.4 m
Data from the previous 72 hours. | See also: Recent months at Cape Nelson
Date/Time
EST
Temp

°C
Wind Pressure Rain
since 9am
mm
Weather Cloud Vis
km
Sea
Height
m
Swell
Dir
 
Speed
knots
Gust
knots
hPa Trend Height
m
Period
s
Dir
02/09:30am 12.1 S 15 21 1022.6 - 0.0 - - - - - - -
02/09:00am 11.8 S 15 19 1022.3 - 0.6 - - - - - - -
02/08:30am 11.5 S 15 22 1021.8 - 0.6 - - - - - - -
02/08:00am 11.2 S 21 27 1021.3 - 0.6 - - - - - - -
02/07:30am 10.9 S 17 25 1020.8 - 0.6 - - - - - - -
02/07:00am 11.2 S 18 24 1020.3 - 0.6 - - - - - - -
02/06:30am 11.2 S 16 23 1019.8 - 0.6 - - - - - - -
02/06:00am 11.1 S 16 22 1019.3 - 0.6 - - - - - - -
02/05:30am 11.1 S 17 23 1018.8 - 0.6 - - - - - - -
02/05:00am 11.0 S 16 25 1018.3 - 0.6 - - - - - - -
02/04:30am 11.0 S 19 24 1017.7 - 0.6 - - - - - - -
02/04:00am 11.2 S 19 25 1017.4 - 0.6 - - - - - - -
02/03:30am 11.5 S 19 25 1017.1 - 0.6 - - - - - - -
02/03:00am 11.5 S 17 24 1016.7 - 0.6 Recent precip. - - - - - -
02/02:30am 11.4 S 17 22 1016.5 - 0.6 - - - - - - -
02/02:07am 11.3 S 17 27 1016.4 - 0.4 - - - - - - -
02/02:00am 11.4 S 13 19 1016.3 - 0.4 - - - - - - -
02/01:30am 10.5 S 9 13 1016.4 - 0.4 - - - - - - -
02/01:00am 10.6 S 15 21 1016.1 - 0.4 - - - - - - -
02/12:42am 10.8 S 15 25 1015.8 - 0.4 - - - - - - -
02/12:30am 11.1 S 15 22 1015.6 - 0.4 - - - - - - -
02/12:00am 11.3 S 13 18 1015.6 - 0.4 - - - - - - -
 
Date/Time
EST
Temp

°C
Wind Pressure Rain
since 9am
mm
Weather Cloud Vis
km
Sea
Height
m
Swell
Dir
 
Speed
knots
Gust
knots
hPa Trend Height
m
Period
s
Dir
01/11:30pm 11.3 S 13 17 1015.1 - 0.4 - - - - - - -
01/11:00pm 11.4 S 9 13 1015.0 - 0.4 - - - - - - -
01/10:30pm 11.2 S 13 17 1014.8 - 0.4 - - - - - - -
01/10:00pm 11.2 S 17 20 1014.6 - 0.4 - - - - - - -
01/09:30pm 11.5 S 10 17 1014.3 - 0.4 - - - - - - -
01/09:00pm 11.6 S 13 20 1014.0 - 0.4 - - - - - - -
01/08:30pm 11.3 S 13 18 1013.6 - 0.4 - - - - - - -
01/08:00pm 11.6 S 10 16 1013.2 - 0.4 - - - - - - -
01/07:30pm 11.6 NE 9 13 1012.7 - 0.4 - - - - - - -
01/07:00pm 11.4 S 14 22 1012.4 - 0.4 - - - - - - -
01/06:30pm 11.5 ESE 8 14 1011.9 - 0.4 - - - - - - -
01/06:00pm 11.7 NE 8 14 1011.5 - 0.4 - - - - - - -
01/05:30pm 11.9 NE 10 14 1011.0 - 0.4 - - - - - - -
01/05:00pm 12.2 NNE 9 14 1010.7 - 0.4 - - - - - - -
01/04:30pm 12.6 NE 9 13 1010.6 - 0.4 - - - - - - -
01/04:00pm 12.6 NE 10 19 1010.0 - 0.4 - - - - - - -
01/03:30pm 12.3 NNE 9 15 1009.8 - 0.4 - - - - - - -
01/03:00pm 13.0 N 9 15 1009.7 - 0.4 - - - - - - -
01/02:30pm 13.1 NE 8 15 1009.5 - 0.4 - - - - - - -
01/02:00pm 13.1 NE 8 15 1009.4 - 0.4 - - - - - - -
01/01:30pm 11.9 W 10 13 1009.6 - 0.4 - - - - - - -
01/01:13pm 12.2 W 17 21 1009.6 - 0.2 - - - - - - -
01/01:00pm 13.2 NNE 7 10 1009.6 - 0.0 - - - - - - -
01/12:30pm 13.1 NNE 7 11 1009.6 - 0.0 - - - - - - -
01/12:00pm 13.6 N 7 12 1009.6 - 0.0 - - - - - - -
01/11:30am 13.6 N 8 13 1009.8 - 0.0 - - - - - - -
01/11:00am 13.4 WNW 11 16 1009.8 - 0.0 - - - - - - -
01/10:30am 13.0 N 8 12 1009.8 - 0.0 - - - - - - -
01/10:00am 12.8 NE 8 12 1009.4 - 0.0 - - - - - - -
01/09:30am 13.4 NE 7 13 1009.1 - 0.0 - - - - - - -
01/09:00am 12.0 NNE 9 13 1009.1 - 6.8 - - - - - - -
01/08:30am 12.0 NE 7 12 1008.8 - 6.8 - - - - - - -
01/08:00am 11.3 E 7 13 1008.2 - 6.8 - - - - - - -
01/07:30am 11.2 NE 8 15 1008.0 - 6.8 - - - - - - -
01/07:00am 11.2 NNE 8 13 1007.9 - 6.8 - - - - - - -
01/06:30am 11.1 NE 9 17 1007.4 - 6.8 - - - - - - -
01/06:00am 11.4 NE 11 20 1006.9 - 6.8 Recent precip. - - - - - -
01/05:30am 11.6 NW 12 18 1007.0 - 6.2 - - - - - - -
01/05:00am 11.7 NW 11 14 1006.6 - 5.2 - - - - - - -
01/04:30am 11.5 NW 10 13 1006.4 - 5.2 - - - - - - -
01/04:00am 11.6 NW 13 17 1006.5 - 5.0 - - - - - - -
01/03:30am 11.6 NW 12 16 1007.2 - 4.6 - - - - - - -
01/03:00am 12.4 W 12 19 1006.7 - 4.0 Recent precip. - - - - - -
01/02:30am 12.9 WNW 17 23 1007.0 - 3.6 - - - - - - -
01/02:00am 12.2 NW 14 19 1006.6 - 2.8 - - - - - - -
01/01:30am 12.0 NNW 9 14 1006.9 - 1.4 - - - - - - -
01/01:00am 12.3 N 11 15 1007.1 - 0.4 - - - - - - -
01/12:30am 13.0 NW 8 12 1006.8 - 0.2 - - - - - - -
01/12:00am 13.8 W 6 8 1007.1 - 0.0 - - - - - - -
 
Date/Time
EST
Temp

°C
Wind Pressure Rain
since 9am
mm
Weather Cloud Vis
km
Sea
Height
m
Swell
Dir
 
Speed
knots
Gust
knots
hPa Trend Height
m
Period
s
Dir
31/11:30pm 13.7 NNW 6 9 1007.3 - 0.0 - - - - - - -
31/11:00pm 13.6 N 6 10 1007.4 - 0.0 - - - - - - -
31/10:30pm 13.6 N 6 7 1007.3 - 0.0 - - - - - - -
31/10:00pm 14.0 N 5 7 1008.2 - 0.0 - - - - - - -
31/09:30pm 14.4 NW 7 10 1008.6 - 0.0 - - - - - - -
31/09:00pm 14.6 NW 8 12 1008.9 - 0.0 - - - - - - -
31/08:30pm 15.1 WNW 11 17 1009.7 - 0.0 - - - - - - -
31/08:00pm 15.1 WNW 10 14 1009.4 - 0.0 - - - - - - -
31/07:30pm 15.0 NW 7 10 1009.5 - 0.0 - - - - - - -
31/07:00pm 15.4 WNW 6 8 1009.6 - 0.0 - - - - - - -
31/06:30pm 16.9 NNW 7 11 1008.9 - 0.0 - - - - - - -
31/06:00pm 17.4 N 6 9 1008.6 - 0.0 - - - - - - -
31/05:30pm 18.1 NNW 8 13 1008.9 - 0.0 - - - - - - -
31/05:00pm 19.0 NNW 15 21 1009.3 - 0.0 - - - - - - -
31/04:39pm 19.3 NNW 15 26 1009.3 - 0.0 - - - - - - -
31/04:30pm 19.4 NNW 13 21 1009.3 - 0.0 - - - - - - -
31/04:00pm 19.7 NNW 13 21 1009.3 - 0.0 - - - - - - -
31/03:30pm 20.2 N 15 22 1009.1 - 0.0 - - - - - - -
31/03:03pm 20.3 NNW 15 25 1009.6 - 0.0 - - - - - - -
31/03:00pm 20.3 NNW 14 25 1009.6 - 0.0 - - - - - - -
31/02:30pm 21.3 NNW 13 20 1009.8 - 0.0 - - - - - - -
31/02:00pm 20.7 N 13 17 1010.1 - 0.0 - - - - - - -
31/01:41pm 20.8 N 15 27 1010.5 - 0.0 - - - - - - -
31/01:30pm 20.6 N 11 17 1010.7 - 0.0 - - - - - - -
31/01:00pm 19.6 N 13 18 1011.1 - 0.0 - - - - - - -
31/12:30pm 19.3 N 10 15 1011.6 - 0.0 - - - - - - -
31/12:00pm 18.9 N 12 17 1012.2 - 0.0 - - - - - - -
31/11:30am 19.7 N 12 18 1012.8 - 0.0 - - - - - - -
31/11:00am 18.0 N 14 22 1012.8 - 0.0 - - - - - - -
31/10:30am 16.0 N 15 24 1013.1 - 0.0 - - - - - - -
31/10:09am 16.1 N 15 25 1013.3 - 0.0 - - - - - - -
31/10:00am 16.1 N 17 24 1013.5 - 0.0 - - - - - - -
31/09:30am 15.3 N 16 23 1013.9 - 0.0 - - - - - - -
31/09:00am 14.3 N 16 25 1014.1 - 0.0 - - - - - - -
31/08:53am 14.3 N 15 25 1014.1 - 0.0 - - - - - - -
31/08:30am 14.3 N 16 25 1014.2 - 0.0 - - - - - - -
31/08:00am 14.2 N 17 27 1014.3 - 0.0 - - - - - - -
31/07:47am 14.3 N 16 26 1014.4 - 0.0 - - - - - - -
31/07:30am 14.0 N 16 25 1014.4 - 0.0 - - - - - - -
31/07:00am 13.1 N 15 21 1014.5 - 0.0 - - - - - - -
31/06:30am 12.8 N 16 22 1014.5 - 0.0 - - - - - - -
31/06:00am 12.9 N 16 23 1014.4 - 0.0 - - - - - - -
31/05:30am 12.9 N 15 24 1014.5 - 0.0 - - - - - - -
31/05:00am 13.2 N 16 22 1014.6 - 0.0 - - - - - - -
31/04:30am 13.3 N 15 21 1014.6 - 0.0 - - - - - - -
31/04:00am 14.2 N 17 24 1015.0 - 0.0 - - - - - - -
31/03:30am 14.2 N 16 24 1015.2 - 0.0 - - - - - - -
31/03:00am 13.6 N 15 19 1015.5 - 0.0 - - - - - - -
31/02:30am 13.7 N 15 23 1016.0 - 0.0 - - - - - - -
31/02:00am 13.7 N 13 19 1016.3 - 0.0 - - - - - - -
31/01:30am 13.7 N 15 20 1016.6 - 0.0 - - - - - - -
31/01:00am 13.5 N 15 20 1016.8 - 0.0 - - - - - - -
31/12:30am 13.5 N 13 17 1017.1 - 0.0 - - - - - - -
31/12:00am 13.7 N 12 17 1017.3 - 0.0 - - - - - - -
 
Date/Time
EST
Temp

°C
Wind Pressure Rain
since 9am
mm
Weather Cloud Vis
km
Sea
Height
m
Swell
Dir
 
Speed
knots
Gust
knots
hPa Trend Height
m
Period
s
Dir
30/11:30pm 13.8 N 13 17 1017.8 - 0.0 - - - - - - -
30/11:00pm 14.0 N 11 15 1018.3 - 0.0 - - - - - - -
30/10:30pm 13.2 N 9 13 1018.8 - 0.0 - - - - - - -
30/10:00pm 12.9 N 9 12 1019.0 - 0.0 - - - - - - -
30/09:30pm 12.6 N 10 12 1019.2 - 0.0 - - - - - - -
30/09:00pm 12.6 NNE 8 10 1019.5 - 0.0 - - - - - - -
30/08:30pm 12.2 NNE 7 9 1019.4 - 0.0 - - - - - - -
30/08:00pm 12.2 NE 8 9 1019.7 - 0.0 - - - - - - -
30/07:30pm 12.0 NE 8 9 1019.8 - 0.0 - - - - - - -
30/07:00pm 12.0 NE 6 7 1019.9 - 0.0 - - - - - - -
30/06:30pm 12.7 ENE 4 6 1020.0 - 0.0 - - - - - - -
30/06:00pm 13.3 NE 6 8 1019.9 - 0.0 - - - - - - -
30/05:30pm 13.9 NE 7 9 1019.7 - 0.0 - - - - - - -
30/05:00pm 14.6 NE 5 7 1019.8 - 0.0 - - - - - - -
30/04:30pm 14.9 NE 6 8 1019.9 - 0.0 - - - - - - -
30/04:00pm 15.6 NE 5 6 1020.2 - 0.0 - - - - - - -
30/03:30pm 15.9 ENE 4 5 1020.3 - 0.0 - - - - - - -
30/03:00pm 15.6 ENE 5 7 1020.4 - 0.0 - - - - - - -
30/02:30pm 15.2 E 5 7 1020.8 - 0.0 - - - - - - -
30/02:00pm 15.5 E 6 8 1021.0 - 0.0 - - - - - - -
30/01:30pm 15.0 ENE 6 7 1021.3 - 0.0 - - - - - - -
30/01:00pm 14.3 E 6 7 1021.8 - 0.0 - - - - - - -
30/12:30pm 14.5 ENE 6 8 1022.3 - 0.0 - - - - - - -
30/12:00pm 13.4 ENE 8 11 1022.7 - 0.0 - - - - - - -
30/11:30am 13.0 ENE 8 10 1023.0 - 0.0 - - - - - - -
30/11:00am 12.2 E 7 9 1023.5 - 0.0 - - - - - - -
30/10:30am 11.7 NE 7 9 1023.7 - 0.0 - - - - - - -
30/10:00am 10.3 NE 8 11 1024.1 - 0.0 - - - - - - -

Other Formats:

Comma delimited format used in spreadsheet applications
http://www.bom.gov.au/fwo/IDV60701/IDV60701.94826.axf

JavaScript Object Notation format (JSON) in row-major order
http://www.bom.gov.au/fwo/IDV60701/IDV60701.94826.json